This is the latest recevied weather packets stored in our database for station/object CE4JVU-10. If no packets are shown the sender has not sent any weather packets the latest 1 day(s).
| Time | Temp. | Humidity | Pressure | Rain* | Wind** | Luminosity | Snow |
|---|---|---|---|---|---|---|---|
| 1778088319 | 17.78° C | 65% | 982.2 hPa | - | - | - | - |
| 1778086519 | 16.67° C | 67% | 981.8 hPa | - | - | - | - |
| 1778084720 | 16.67° C | 68% | 982 hPa | - | - | - | - |
| 1778082920 | 17.22° C | 65% | 981.7 hPa | - | - | - | - |
| 1778081120 | 18.89° C | 62% | 981.3 hPa | - | - | - | - |
| 1778079320 | 18.89° C | 62% | 980.7 hPa | - | - | - | - |
| 1778077520 | 18.33° C | 61% | 979.6 hPa | - | - | - | - |
| 1778063120 | 16.67° C | 62% | 979.2 hPa | - | - | - | - |
| 1778061320 | 16.67° C | 61% | 979 hPa | - | - | - | - |
| 1778059520 | 16.67° C | 62% | 979 hPa | - | - | - | - |
| 1778057720 | 17.22° C | 62% | 978.9 hPa | - | - | - | - |
| 1778055920 | 17.22° C | 62% | 978.6 hPa | - | - | - | - |
| 1778054120 | 17.22° C | 62% | 978.8 hPa | - | - | - | - |
| 1778045119 | 17.78° C | 61% | 979.1 hPa | - | - | - | - |
| 1778043319 | 17.78° C | 62% | 979.4 hPa | - | - | - | - |
| 1778039718 | 18.33° C | 60% | 979.6 hPa | - | - | - | - |
| 1778037918 | 17.78° C | 59% | 979.9 hPa | - | - | - | - |
| 1778036118 | 18.33° C | 59% | 979.9 hPa | - | - | - | - |
| 1778034318 | 17.22° C | 58% | 980 hPa | - | - | - | - |
| 1778032518 | 17.78° C | 57% | 980.1 hPa | - | - | - | - |
| 1778030718 | 17.78° C | 57% | 980 hPa | - | - | - | - |
| 1778028918 | 17.78° C | 56% | 979.9 hPa | - | - | - | - |
| 1778027118 | 17.78° C | 56% | 980 hPa | - | - | - | - |
| 1778019919 | 18.33° C | 55% | 978.9 hPa | - | - | - | - |
| 1778018119 | 18.33° C | 56% | 978.4 hPa | - | - | - | - |
* Rain since midnight (hover to see other rain measurements)
** Current wind speed in m/s (hover to see current wind gust speed)